Terminal Aerodrome Forecast
Issued by NWS

Home | Current Version | Previous Version | Text Only | Print | Product List | Glossary On
Versions: 1 2 3 4 5 6 7 8 9 10 11 12 13 14 15 16 17 18 19 20 21 22 23
000
FTUS43 KAPX 230522
TAFAPN
TAF
KAPN 230522Z 2306/2406 00000KT P6SM VCSH OVC080
     FM230800 00000KT 5SM -SHRA BR OVC025
     FM231100 29004KT 5SM -SHRA BR OVC012
     FM231300 28005KT P6SM VCSH OVC015
     FM231600 28007KT P6SM BKN250
     FM240200 32006KT P6SM SCT200=

USA.gov is the U.S. government's official web portal to all federal, state and local government web resources and services.